Time;durP1;ratioP1;P1;durP2;ratioP2;P2;SDS_P1;SDS_P2;PMS_P1;PMS_P2;Temp;Humidity;BMP_temperature;BMP_pressure;BME280_temperature;BME280_humidity;BME280_pressure;Samples;Min_cycle;Max_cycle;Signal;HPM_P1;HPM_P2
2022/12/16 00:00:22;;;;;;;20.65;4.07;;;;;;;;;;6246369;22;20446;-63
2022/12/16 00:02:48;;;;;;;11.30;4.00;;;;;;;;;;6246431;23;20000;-63
2022/12/16 00:05:14;;;;;;;14.35;3.90;;;;;;;;;;6245983;23;20089;-63
2022/12/16 00:07:40;;;;;;;13.88;3.97;;;;;;;;;;6246084;23;20011;-63
2022/12/16 00:10:07;;;;;;;8.88;2.50;;;;;;;;;;6246191;23;20069;-63
2022/12/16 00:12:33;;;;;;;15.18;4.13;;;;;;;;;;6246277;23;20091;-63
2022/12/16 00:14:59;;;;;;;8.18;3.13;;;;;;;;;;6246353;23;20338;-63
2022/12/16 00:17:26;;;;;;;10.18;3.45;;;;;;;;;;6246147;23;20011;-63
2022/12/16 00:19:52;;;;;;;24.80;5.90;;;;;;;;;;6246426;23;20386;-63
2022/12/16 00:22:18;;;;;;;18.65;5.55;;;;;;;;;;6245769;23;20007;-63
2022/12/16 00:24:44;;;;;;;21.58;5.55;;;;;;;;;;6246129;23;20000;-63
2022/12/16 00:27:10;;;;;;;18.38;5.65;;;;;;;;;;6245972;23;20461;-63
2022/12/16 00:29:36;;;;;;;16.90;5.20;;;;;;;;;;6246476;22;20011;-63
2022/12/16 00:32:03;;;;;;;28.85;6.47;;;;;;;;;;6244233;23;20012;-63
2022/12/16 00:34:29;;;;;;;32.45;7.90;;;;;;;;;;6246341;23;20005;-63
2022/12/16 00:36:55;;;;;;;27.05;8.63;;;;;;;;;;6245936;22;20344;-63
2022/12/16 00:39:21;;;;;;;33.17;9.32;;;;;;;;;;6245637;23;20015;-63
2022/12/16 00:41:47;;;;;;;30.80;6.68;;;;;;;;;;6246315;23;20008;-63
2022/12/16 00:44:13;;;;;;;25.17;6.47;;;;;;;;;;6245374;23;20370;-63
2022/12/16 00:46:39;;;;;;;19.52;5.72;;;;;;;;;;6246266;23;20350;-63
2022/12/16 00:49:05;;;;;;;22.98;6.25;;;;;;;;;;6245849;23;20053;-63
2022/12/16 00:51:32;;;;;;;22.45;6.80;;;;;;;;;;6245497;23;20377;-63
2022/12/16 00:53:58;;;;;;;19.63;4.68;;;;;;;;;;6246143;23;20004;-63
2022/12/16 00:56:24;;;;;;;23.08;4.72;;;;;;;;;;6245521;23;20004;-63
2022/12/16 00:58:50;;;;;;;17.67;5.18;;;;;;;;;;6245828;23;20402;-63
2022/12/16 01:01:16;;;;;;;18.42;4.95;;;;;;;;;;6245797;23;20008;-63
2022/12/16 01:03:42;;;;;;;15.95;4.78;;;;;;;;;;6245983;23;20350;-63
2022/12/16 01:06:10;;;;;;;19.73;4.93;;;;;;;;;;6245193;23;20046;-63
2022/12/16 01:08:36;;;;;;;24.38;6.65;;;;;;;;;;6245719;23;20356;-63
2022/12/16 01:11:02;;;;;;;18.67;5.95;;;;;;;;;;6245525;23;20062;-63
2022/12/16 01:13:28;;;;;;;22.67;6.03;;;;;;;;;;6245551;23;20083;-63
2022/12/16 01:15:55;;;;;;;16.33;4.03;;;;;;;;;;6244389;23;20004;-63
2022/12/16 01:18:21;;;;;;;13.25;3.08;;;;;;;;;;6245576;22;20000;-63
2022/12/16 01:20:47;;;;;;;9.77;2.20;;;;;;;;;;6243511;23;20062;-63
2022/12/16 01:23:13;;;;;;;10.60;3.20;;;;;;;;;;6245395;23;20004;-63
2022/12/16 01:25:39;;;;;;;9.15;3.13;;;;;;;;;;6245715;23;20000;-63
2022/12/16 01:28:05;;;;;;;7.95;1.95;;;;;;;;;;6245479;23;19996;-63
2022/12/16 01:30:32;;;;;;;6.97;2.15;;;;;;;;;;6245721;23;20008;-63
2022/12/16 01:32:58;;;;;;;7.80;2.55;;;;;;;;;;6245399;23;20071;-63
2022/12/16 01:35:24;;;;;;;6.63;2.00;;;;;;;;;;6244961;23;20069;-63
2022/12/16 01:37:50;;;;;;;6.82;2.42;;;;;;;;;;6245740;23;20339;-63
2022/12/16 01:40:17;;;;;;;8.23;2.13;;;;;;;;;;6245032;23;20004;-63
2022/12/16 01:42:44;;;;;;;13.18;2.78;;;;;;;;;;6245655;23;20050;-63
2022/12/16 01:45:28;;;;;;;9.90;3.28;;;;;;;;;;6245313;23;20437;-63
2022/12/16 01:47:56;;;;;;;7.65;3.33;;;;;;;;;;6245871;23;20346;-63
2022/12/16 01:50:23;;;;;;;15.27;4.18;;;;;;;;;;6244642;23;20090;-63
2022/12/16 01:52:53;;;;;;;17.52;5.20;;;;;;;;;;6245433;23;20442;-63
2022/12/16 01:55:21;;;;;;;20.13;6.30;;;;;;;;;;6245800;23;20011;-63
2022/12/16 01:57:49;;;;;;;20.75;6.72;;;;;;;;;;6245328;22;20708;-63
2022/12/16 02:00:15;;;;;;;12.80;4.05;;;;;;;;;;6245073;23;20049;-63
2022/12/16 02:02:43;;;;;;;16.92;4.85;;;;;;;;;;6245580;23;20008;-63
2022/12/16 02:05:19;;;;;;;9.52;3.17;;;;;;;;;;6244979;23;20011;-63
2022/12/16 02:07:57;;;;;;;7.88;2.72;;;;;;;;;;6245351;23;20075;-63
2022/12/16 02:10:32;;;;;;;12.45;2.90;;;;;;;;;;6245165;23;20012;-63
2022/12/16 02:13:03;;;;;;;9.88;2.47;;;;;;;;;;6245159;23;20008;-63
2022/12/16 02:15:38;;;;;;;9.13;1.95;;;;;;;;;;6244992;23;20032;-63
2022/12/16 02:18:19;;;;;;;12.40;2.72;;;;;;;;;;6244649;23;20027;-63
2022/12/16 02:20:57;;;;;;;12.82;3.33;;;;;;;;;;6245210;23;20012;-63
2022/12/16 02:23:42;;;;;;;9.82;2.38;;;;;;;;;;6244932;23;20011;-63
2022/12/16 02:26:26;;;;;;;5.75;1.75;;;;;;;;;;6243752;23;20004;-63
2022/12/16 02:29:01;;;;;;;9.95;1.65;;;;;;;;;;6245332;23;20502;-63
2022/12/16 02:31:36;;;;;;;6.47;1.70;;;;;;;;;;6244925;23;20507;-63
2022/12/16 02:34:08;;;;;;;9.60;1.90;;;;;;;;;;6244996;23;20079;-63
2022/12/16 02:36:47;;;;;;;7.95;1.88;;;;;;;;;;6245264;23;20458;-63
2022/12/16 02:39:18;;;;;;;13.05;3.22;;;;;;;;;;6244959;23;20426;-63
2022/12/16 02:41:53;;;;;;;13.57;3.10;;;;;;;;;;6245261;23;20000;-63
2022/12/16 02:44:20;;;;;;;8.32;2.28;;;;;;;;;;6245093;23;20342;-63
2022/12/16 02:46:54;;;;;;;11.90;2.22;;;;;;;;;;6244820;23;20044;-63
2022/12/16 02:49:20;;;;;;;12.55;3.25;;;;;;;;;;6244918;23;20039;-63
2022/12/16 02:51:47;;;;;;;7.03;1.92;;;;;;;;;;6245120;23;20000;-63
2022/12/16 02:54:13;;;;;;;8.07;2.17;;;;;;;;;;6245041;23;20015;-63
2022/12/16 02:56:40;;;;;;;10.10;3.38;;;;;;;;;;6245303;23;20457;-63
2022/12/16 02:59:06;;;;;;;10.85;4.22;;;;;;;;;;6245113;23;20008;-63
2022/12/16 03:01:34;;;;;;;8.35;3.70;;;;;;;;;;6244682;23;20007;-63
2022/12/16 03:04:03;;;;;;;11.05;3.72;;;;;;;;;;6245203;23;20434;-63
2022/12/16 03:06:31;;;;;;;7.13;2.90;;;;;;;;;;6244808;22;20054;-63
2022/12/16 03:08:59;;;;;;;8.20;3.47;;;;;;;;;;6246056;23;20034;-63
2022/12/16 03:11:27;;;;;;;10.15;3.05;;;;;;;;;;6245459;23;20008;-63
2022/12/16 03:13:54;;;;;;;7.43;3.35;;;;;;;;;;6247025;23;20016;-63
2022/12/16 03:16:24;;;;;;;20.55;7.45;;;;;;;;;;6246289;23;20004;-63
2022/12/16 03:18:52;;;;;;;17.92;5.60;;;;;;;;;;6246846;23;20027;-63
2022/12/16 03:21:21;;;;;;;22.13;4.38;;;;;;;;;;6246992;23;20010;-63
2022/12/16 03:24:06;;;;;;;11.77;3.28;;;;;;;;;;6246981;23;20010;-63
2022/12/16 03:26:38;;;;;;;9.18;3.30;;;;;;;;;;6246784;22;20452;-63
2022/12/16 03:29:07;;;;;;;11.63;3.78;;;;;;;;;;6247003;23;20004;-63
2022/12/16 03:31:38;;;;;;;13.55;4.28;;;;;;;;;;6246093;23;20011;-63
2022/12/16 03:34:09;;;;;;;11.45;2.97;;;;;;;;;;6247094;23;20461;-63
2022/12/16 03:36:37;;;;;;;21.55;3.78;;;;;;;;;;6246591;22;20004;-63
2022/12/16 03:39:05;;;;;;;8.23;2.33;;;;;;;;;;6246499;23;20316;-63
2022/12/16 03:41:32;;;;;;;12.30;2.75;;;;;;;;;;6246486;23;20438;-63
2022/12/16 03:43:58;;;;;;;7.97;2.25;;;;;;;;;;6246919;23;20000;-63
2022/12/16 03:46:24;;;;;;;10.40;2.42;;;;;;;;;;6246059;23;19996;-63
2022/12/16 03:48:51;;;;;;;5.45;1.77;;;;;;;;;;6246552;23;20001;-63
2022/12/16 03:51:18;;;;;;;8.15;1.80;;;;;;;;;;6246541;23;20004;-63
2022/12/16 03:53:45;;;;;;;13.68;2.03;;;;;;;;;;6246566;23;20067;-63
2022/12/16 03:56:11;;;;;;;8.77;2.53;;;;;;;;;;6246611;23;20484;-63
2022/12/16 03:58:41;;;;;;;10.07;1.90;;;;;;;;;;6246359;23;20063;-63
2022/12/16 04:01:08;;;;;;;6.93;2.00;;;;;;;;;;6246459;23;20335;-63
2022/12/16 04:03:34;;;;;;;3.55;1.70;;;;;;;;;;6246158;22;20078;-63
2022/12/16 04:06:00;;;;;;;6.45;1.83;;;;;;;;;;6246696;23;20004;-63
2022/12/16 04:08:27;;;;;;;14.02;2.45;;;;;;;;;;6244947;23;20075;-63
2022/12/16 04:24:49;;;;;;;9.52;3.00;;;;;;;;;;6246531;23;20000;-63
2022/12/16 04:27:24;;;;;;;8.93;2.60;;;;;;;;;;6246241;23;20003;-63
